Terminal Aerodrome Forecast
Issued by NWS

Home | Current Version | Previous Version | Text Only | Print | Product List | Glossary On
Versions: 1 2 3 4 5 6 7 8 9 10 11 12 13 14 15 16 17 18 19 20 21 22 23 24 25 26 27 28 29 30
000
FTUS43 KLOT 230248 AAB
TAFDPA
TAF AMD
KDPA 230248Z 2303/2324 35006KT 6SM -RA BR BKN008 OVC015
      TEMPO 2303/2307 3SM -RA BR BKN007
     FM231000 36008KT 5SM -RA BR SCT008 BKN025
     FM231400 34007KT P6SM FEW025 BKN150=

USA.gov is the U.S. government's official web portal to all federal, state and local government web resources and services.